Time;durP1;ratioP1;P1;durP2;ratioP2;P2;SDS_P1;SDS_P2;PMS_P1;PMS_P2;Temp;Humidity;BMP_temperature;BMP_pressure;BME280_temperature;BME280_humidity;BME280_pressure;Samples;Min_cycle;Max_cycle;Signal;HPM_P1;HPM_P2
2022/08/03 00:01:21;;;;;;;2.73;2.07;;;14.30;99.90;13.70;100675;;;;543154;261;24189;-83
2022/08/03 00:03:52;;;;;;;1.37;1.23;;;14.30;99.90;13.70;100670;;;;569096;250;24107;-84
2022/08/03 00:06:20;;;;;;;8.33;2.10;;;14.30;99.90;13.70;100669;;;;556056;253;24137;-83
2022/08/03 00:08:47;;;;;;;5.53;1.60;;;14.30;99.90;13.80;100666;;;;560439;253;24148;-83
2022/08/03 00:11:16;;;;;;;6.17;2.00;;;14.40;99.90;13.80;100667;;;;566013;250;24153;-83
2022/08/03 00:13:44;;;;;;;8.60;2.40;;;14.40;99.90;13.80;100670;;;;566516;250;24158;-83
2022/08/03 00:16:14;;;;;;;6.60;2.07;;;14.40;99.90;13.80;100663;;;;574917;250;26272;-84
2022/08/03 00:18:45;;;;;;;3.83;1.90;;;14.40;99.90;13.80;100655;;;;565931;250;24120;-83
2022/08/03 00:21:10;;;;;;;4.97;1.93;;;14.40;99.90;13.80;100661;;;;565195;250;24160;-82
2022/08/03 00:23:38;;;;;;;9.77;1.90;;;14.40;99.90;13.80;100660;;;;575152;250;24124;-83
2022/08/03 00:26:08;;;;;;;8.33;2.10;;;14.50;99.90;13.90;100655;;;;574986;250;24159;-83
2022/08/03 00:28:36;;;;;;;3.53;1.60;;;14.50;99.90;13.90;100655;;;;565415;251;24112;-83
2022/08/03 00:31:05;;;;;;;6.10;1.50;;;14.50;99.90;13.90;100648;;;;566120;246;24138;-85
2022/08/03 00:33:33;;;;;;;8.13;2.17;;;14.60;99.90;14.00;100649;;;;544830;259;24211;-84
2022/08/03 00:36:01;;;;;;;2.60;1.20;;;14.60;99.90;14.00;100646;;;;554158;254;24174;-85
2022/08/03 00:38:34;;;;;;;5.37;1.70;;;14.60;99.90;14.00;100641;;;;571845;251;24104;-82
2022/08/03 00:40:58;;;;;;;2.97;1.40;;;14.60;99.90;14.00;100644;;;;573590;250;24210;-84
2022/08/03 00:43:28;;;;;;;6.57;1.77;;;14.60;99.90;14.00;100640;;;;563403;250;24119;-82
2022/08/03 00:46:00;;;;;;;8.40;1.83;;;14.60;99.90;14.00;100642;;;;573782;250;24120;-81
2022/08/03 00:48:24;;;;;;;5.73;2.07;;;14.60;99.90;14.00;100641;;;;563729;250;24165;-83
2022/08/03 00:50:54;;;;;;;2.47;1.67;;;14.60;99.90;14.10;100638;;;;562473;251;24120;-83
2022/08/03 00:53:24;;;;;;;9.03;2.13;;;14.70;99.90;14.10;100640;;;;570876;251;24141;-83
2022/08/03 00:55:48;;;;;;;3.20;1.63;;;14.70;99.90;14.10;100643;;;;573635;251;24110;-82
2022/08/03 00:58:20;;;;;;;6.27;1.63;;;14.70;99.90;14.10;100633;;;;574237;250;24159;-84
2022/08/03 01:00:46;;;;;;;6.53;1.90;;;14.70;99.90;14.10;100628;;;;565523;250;24178;-82
2022/08/03 01:03:20;;;;;;;3.27;2.17;;;14.80;99.90;14.20;100629;;;;565435;250;24166;-83
2022/08/03 01:06:00;;;;;;;6.17;2.23;;;14.80;99.90;14.20;100632;;;;572798;250;24138;-82
2022/08/03 01:08:37;;;;;;;4.97;1.57;;;14.80;99.90;14.20;100628;;;;572791;250;24116;-83
2022/08/03 01:11:37;;;;;;;8.53;1.73;;;14.90;99.90;14.30;100625;;;;572991;247;24178;-82
2022/08/03 01:14:17;;;;;;;6.27;1.77;;;14.90;99.90;14.30;100622;;;;561688;250;24117;-83
2022/08/03 01:16:51;;;;;;;4.17;1.70;;;14.90;99.90;14.30;100614;;;;572727;250;24113;-83
2022/08/03 01:19:22;;;;;;;5.27;1.70;;;15.00;99.90;14.40;100605;;;;564377;250;24192;-83
2022/08/03 01:22:14;;;;;;;2.60;1.53;;;14.90;99.90;14.40;100609;;;;572129;248;24142;-84
2022/08/03 01:24:53;;;;;;;6.47;1.40;;;15.00;99.90;14.40;100609;;;;565734;249;24102;-84
2022/08/03 01:27:33;;;;;;;2.97;1.50;;;15.00;99.90;14.40;100606;;;;557608;250;24138;-83
2022/08/03 01:30:11;;;;;;;4.90;1.73;;;15.00;99.90;14.40;100611;;;;543611;259;24199;-84
2022/08/03 01:32:47;;;;;;;7.70;1.63;;;15.00;99.90;14.40;100608;;;;552720;255;24177;-84
2022/08/03 01:35:27;;;;;;;3.47;1.37;;;15.00;99.90;14.50;100603;;;;565627;250;24115;-84
2022/08/03 01:37:58;;;;;;;5.20;1.23;;;15.10;99.90;14.50;100607;;;;545231;259;24182;-84
2022/08/03 01:40:26;;;;;;;4.63;1.57;;;15.10;99.90;14.60;100605;;;;563007;255;24154;-84
2022/08/03 01:42:56;;;;;;;4.37;1.80;;;15.10;99.90;14.60;100598;;;;572151;251;24309;-84
2022/08/03 01:45:24;;;;;;;12.13;1.60;;;15.20;99.90;14.60;100602;;;;565408;250;24164;-85
2022/08/03 01:47:52;;;;;;;3.50;1.30;;;15.20;99.90;14.60;100598;;;;573628;250;24180;-84
2022/08/03 01:50:23;;;;;;;2.53;1.47;;;15.30;99.90;14.70;100589;;;;573588;250;24175;-84
2022/08/03 01:52:51;;;;;;;2.27;1.53;;;15.30;99.90;14.70;100589;;;;573703;247;24150;-84
2022/08/03 01:55:19;;;;;;;8.70;2.00;;;15.30;99.90;14.70;100586;;;;565277;251;24209;-84
2022/08/03 01:57:47;;;;;;;16.33;2.03;;;15.30;99.90;14.70;100587;;;;563865;250;24137;-84
2022/08/03 02:00:15;;;;;;;7.97;1.87;;;15.30;99.90;14.70;100583;;;;564611;251;25178;-83
2022/08/03 02:02:45;;;;;;;3.00;1.50;;;15.30;99.90;14.70;100587;;;;567751;250;24111;-84
2022/08/03 02:05:10;;;;;;;5.33;1.53;;;15.30;99.90;14.70;100580;;;;564408;250;24123;-84
2022/08/03 02:07:38;;;;;;;5.73;1.40;;;15.30;99.90;14.80;100596;;;;573009;250;24147;-83
2022/08/03 02:10:06;;;;;;;3.37;1.53;;;15.40;99.90;14.70;100583;;;;573181;250;25280;-83
2022/08/03 02:12:34;;;;;;;4.00;1.37;;;15.40;99.90;14.70;100587;;;;573188;250;24112;-84
2022/08/03 02:15:05;;;;;;;4.63;1.87;;;15.40;99.90;14.80;100589;;;;564455;251;24168;-85
2022/08/03 02:17:30;;;;;;;6.07;2.33;;;15.30;99.90;14.70;100586;;;;564205;251;24145;-83
2022/08/03 02:20:02;;;;;;;2.83;1.37;;;15.30;99.90;14.70;100582;;;;573120;250;24110;-83
2022/08/03 02:22:26;;;;;;;7.27;1.80;;;15.40;99.90;14.80;100582;;;;564449;251;24136;-84
2022/08/03 02:24:57;;;;;;;7.60;2.03;;;15.40;99.90;14.80;100575;;;;564765;250;24158;-84
2022/08/03 02:27:25;;;;;;;7.83;1.93;;;15.40;99.90;14.80;100580;;;;564525;251;24109;-83
2022/08/03 02:29:52;;;;;;;3.90;1.40;;;15.40;99.90;14.80;100583;;;;573425;250;24110;-85
2022/08/03 02:32:21;;;;;;;3.03;1.30;;;15.40;99.90;14.80;100580;;;;572520;246;24160;-84
2022/08/03 02:34:49;;;;;;;4.13;1.47;;;15.40;99.90;14.80;100579;;;;565736;249;24146;-84
2022/08/03 02:37:17;;;;;;;5.03;1.57;;;15.40;99.90;14.80;100582;;;;573959;250;24116;-84
2022/08/03 02:39:45;;;;;;;6.27;1.53;;;15.40;99.90;14.80;100580;;;;572590;249;24119;-84
2022/08/03 02:42:16;;;;;;;5.20;1.60;;;15.40;99.90;14.80;100576;;;;573723;247;24166;-83
2022/08/03 02:44:46;;;;;;;4.50;1.90;;;15.40;99.90;14.80;100573;;;;565053;251;24125;-84
2022/08/03 02:47:09;;;;;;;9.33;1.73;;;15.40;99.90;14.80;100569;;;;564771;250;24135;-84
2022/08/03 02:49:37;;;;;;;5.23;1.53;;;15.40;99.90;14.90;100571;;;;573707;250;24106;-84
2022/08/03 02:52:05;;;;;;;4.93;1.47;;;15.50;99.90;14.90;100570;;;;564255;250;24128;-84
2022/08/03 02:54:35;;;;;;;4.20;1.30;;;15.50;99.90;14.90;100572;;;;573370;247;24115;-83
2022/08/03 02:57:02;;;;;;;4.77;1.80;;;15.60;99.90;14.90;100572;;;;544743;259;24216;-83
2022/08/03 02:59:30;;;;;;;2.83;1.50;;;15.50;99.90;15.00;100572;;;;564694;251;24239;-84
2022/08/03 03:01:58;;;;;;;8.10;1.97;;;15.60;99.90;15.00;100568;;;;564943;251;24117;-84
2022/08/03 03:04:26;;;;;;;3.97;1.77;;;15.60;99.90;15.10;100570;;;;573355;247;24152;-83
2022/08/03 03:06:55;;;;;;;5.47;1.67;;;15.70;99.90;15.10;100570;;;;573420;247;24139;-84
2022/08/03 03:09:26;;;;;;;3.17;2.10;;;15.70;99.90;15.10;100571;;;;569566;250;24127;-83
2022/08/03 03:11:52;;;;;;;4.40;1.63;;;15.70;99.90;15.10;100574;;;;573544;250;24114;-83
2022/08/03 03:14:21;;;;;;;5.47;2.30;;;15.70;99.90;15.20;100574;;;;564269;250;24171;-84
2022/08/03 03:16:52;;;;;;;6.47;2.00;;;15.80;99.90;15.20;100567;;;;564398;250;24106;-84
2022/08/03 03:19:18;;;;;;;8.97;2.10;;;15.80;99.90;15.30;100576;;;;564238;251;24207;-83
2022/08/03 03:21:48;;;;;;;3.33;1.53;;;15.90;99.90;15.30;100569;;;;564558;250;24208;-83
2022/08/03 03:24:12;;;;;;;4.97;1.90;;;15.90;99.90;15.40;100565;;;;573343;247;24139;-83
2022/08/03 03:26:40;;;;;;;4.47;1.60;;;16.00;99.90;15.40;100570;;;;564889;251;24124;-84
2022/08/03 03:29:09;;;;;;;12.03;2.17;;;16.10;99.90;15.50;100568;;;;565234;250;24114;-84
2022/08/03 03:31:41;;;;;;;2.53;1.43;;;16.20;99.90;15.60;100567;;;;573481;250;24270;-85
2022/08/03 03:34:09;;;;;;;5.73;1.83;;;16.20;99.90;15.70;100563;;;;573143;250;24112;-84
2022/08/03 03:36:33;;;;;;;5.70;2.00;;;16.30;99.90;15.80;100567;;;;564818;251;24168;-84
2022/08/03 03:39:01;;;;;;;3.80;1.73;;;16.40;99.90;15.90;100569;;;;564329;250;24121;-84
2022/08/03 03:41:29;;;;;;;4.90;1.83;;;16.50;99.90;15.90;100561;;;;563839;250;24120;-84
2022/08/03 03:44:00;;;;;;;7.40;2.20;;;16.50;99.90;16.00;100573;;;;573419;249;24148;-85
2022/08/03 03:46:28;;;;;;;4.73;1.87;;;16.60;99.90;16.10;100578;;;;565514;250;24128;-85
2022/08/03 03:48:54;;;;;;;2.87;1.50;;;16.60;99.90;16.10;100583;;;;573888;250;24163;-85
2022/08/03 03:51:22;;;;;;;7.73;2.00;;;16.70;99.90;16.20;100582;;;;563206;250;24100;-84
2022/08/03 03:53:59;;;;;;;5.60;1.60;;;16.80;99.90;16.20;100588;;;;563387;251;24123;-85
2022/08/03 03:56:30;;;;;;;3.57;1.97;;;16.80;99.90;16.30;100581;;;;564679;251;24182;-84
2022/08/03 03:59:04;;;;;;;3.83;1.80;;;16.90;99.90;16.30;100577;;;;565729;251;24254;-85
2022/08/03 04:01:27;;;;;;;7.53;2.37;;;16.90;99.90;16.40;100587;;;;574215;250;24151;-84
2022/08/03 04:03:51;;;;;;;6.07;2.00;;;17.00;99.90;16.50;100583;;;;565072;250;24163;-85
2022/08/03 04:11:50;;;;;;;8.37;2.03;;;17.30;99.90;16.90;100593;;;;565455;251;24166;-85
2022/08/03 04:14:24;;;;;;;7.67;2.43;;;17.40;99.90;17.00;100583;;;;573636;250;24160;-85
2022/08/03 04:16:58;;;;;;;11.03;2.20;;;17.60;99.90;17.20;100594;;;;568413;250;24109;-84
2022/08/03 04:19:27;;;;;;;5.93;2.00;;;17.90;99.90;17.40;100594;;;;565315;251;24132;-84
2022/08/03 04:21:55;;;;;;;6.80;2.27;;;17.90;99.90;17.50;100603;;;;565076;250;25302;-84
2022/08/03 04:24:23;;;;;;;8.33;1.83;;;18.10;99.90;17.60;100591;;;;574383;247;24115;-85
2022/08/03 04:26:51;;;;;;;9.53;2.50;;;18.20;99.90;17.80;100600;;;;565661;250;24134;-87
2022/08/03 04:29:19;;;;;;;6.33;2.10;;;18.30;99.90;17.90;100599;;;;571801;251;24157;-84
2022/08/03 04:31:47;;;;;;;9.63;2.53;;;18.40;99.90;18.10;100599;;;;574210;246;24171;-85
2022/08/03 04:34:18;;;;;;;6.23;2.47;;;18.70;99.90;18.40;100605;;;;573929;250;24227;-84
2022/08/03 04:36:42;;;;;;;4.47;1.97;;;18.90;99.90;18.70;100605;;;;565932;250;24121;-87
2022/08/03 04:39:13;;;;;;;10.07;2.30;;;19.20;99.90;19.00;100602;;;;573514;250;24127;-85
2022/08/03 04:41:41;;;;;;;6.33;2.10;;;19.50;99.90;19.40;100605;;;;574121;251;24181;-84
2022/08/03 04:44:13;;;;;;;9.02;2.95;;;20.40;99.90;19.90;100609;;;;568251;250;35546;-84
2022/08/03 04:46:38;;;;;;;5.43;2.50;;;20.40;99.90;20.90;100604;;;;565405;250;24132;-85
2022/08/03 04:49:06;;;;;;;6.30;2.60;;;21.30;99.90;22.40;100614;;;;573666;250;24109;-85
2022/08/03 04:51:37;;;;;;;6.53;2.30;;;22.80;99.90;23.50;100612;;;;572823;250;24123;-85
2022/08/03 04:54:01;;;;;;;6.27;2.73;;;24.00;99.90;24.60;100618;;;;563952;250;24212;-84
2022/08/03 04:56:31;;;;;;;9.17;2.63;;;25.10;99.90;25.80;100611;;;;565785;250;24136;-84
2022/08/03 04:58:58;;;;;;;8.43;2.53;;;26.40;99.90;26.30;100627;;;;563775;250;23153;-85
2022/08/03 05:01:26;;;;;;;6.27;2.60;;;27.10;99.90;26.20;100622;;;;563521;250;23125;-84
2022/08/03 05:03:54;;;;;;;6.47;2.33;;;27.10;99.90;25.90;100613;;;;573999;250;24156;-83
2022/08/03 05:06:22;;;;;;;7.57;2.33;;;26.80;99.60;25.70;100619;;;;573583;250;24096;-86
2022/08/03 05:08:50;;;;;;;11.80;2.87;;;26.50;98.30;25.40;100630;;;;563234;251;23161;-85
2022/08/03 05:11:21;;;;;;;10.23;3.47;;;26.30;98.00;25.10;100631;;;;570650;251;24185;-85
2022/08/03 05:13:46;;;;;;;15.33;3.00;;;25.90;97.30;24.80;100635;;;;564932;251;24102;-86
2022/08/03 05:16:14;;;;;;;10.10;3.13;;;25.60;97.80;24.80;100634;;;;574146;250;23120;-86
2022/08/03 05:18:43;;;;;;;12.40;3.30;;;25.40;98.30;24.70;100633;;;;574676;247;23166;-85
2022/08/03 05:21:15;;;;;;;9.73;2.90;;;25.30;98.60;24.80;100633;;;;564751;250;24111;-86
2022/08/03 05:23:38;;;;;;;16.03;4.07;;;25.40;98.20;24.80;100640;;;;574097;247;23121;-84
2022/08/03 05:26:10;;;;;;;27.07;4.60;;;25.40;98.20;25.00;100644;;;;563557;251;23119;-86
2022/08/03 05:28:34;;;;;;;22.33;4.10;;;25.50;98.00;25.10;100651;;;;566219;251;24119;-85
2022/08/03 05:31:02;;;;;;;12.37;3.53;;;25.60;98.00;25.30;100653;;;;564169;251;24572;-86
2022/08/03 05:33:30;;;;;;;25.07;4.07;;;25.80;97.70;25.40;100653;;;;563886;251;23174;-85
2022/08/03 05:36:02;;;;;;;18.17;3.70;;;25.90;97.60;25.50;100656;;;;574378;250;24151;-84
2022/08/03 05:38:26;;;;;;;13.13;3.37;;;26.00;97.80;25.70;100657;;;;564474;250;23138;-84
2022/08/03 05:40:54;;;;;;;12.80;3.20;;;26.20;96.90;25.80;100659;;;;563741;250;24213;-84
2022/08/03 05:43:22;;;;;;;12.20;3.07;;;26.30;96.80;26.00;100651;;;;563437;251;24173;-85
2022/08/03 05:45:50;;;;;;;12.23;3.03;;;26.50;96.70;26.30;100643;;;;562161;251;23144;-84
2022/08/03 05:48:18;;;;;;;18.00;3.73;;;26.80;96.20;26.70;100652;;;;563543;251;24102;-85
2022/08/03 05:50:46;;;;;;;21.00;3.40;;;27.20;95.60;27.20;100663;;;;562282;251;23152;-85
2022/08/03 05:53:13;;;;;;;22.13;3.97;;;27.60;94.50;27.70;100656;;;;563677;251;23124;-85
2022/08/03 05:55:41;;;;;;;19.03;4.50;;;28.10;93.40;28.40;100651;;;;562276;251;23115;-85
2022/08/03 05:58:09;;;;;;;32.03;4.97;;;28.80;92.10;29.00;100655;;;;573148;250;24129;-85
2022/08/03 06:00:37;;;;;;;20.40;3.60;;;29.40;90.90;30.20;100655;;;;552583;259;23176;-85
2022/08/03 06:03:05;;;;;;;19.90;4.00;;;30.50;88.50;31.70;100663;;;;554247;255;23142;-86
2022/08/03 06:05:35;;;;;;;32.45;4.47;;;31.90;83.40;32.80;100661;;;;564365;250;23142;-87
2022/08/03 06:08:01;;;;;;;16.83;3.30;;;33.10;77.60;33.70;100660;;;;564359;250;23168;-87
2022/08/03 06:10:32;;;;;;;20.80;3.87;;;34.00;72.10;34.90;100664;;;;565243;250;24265;-86
2022/08/03 06:12:57;;;;;;;22.37;3.60;;;35.20;66.20;36.80;100666;;;;572471;250;23179;-86
2022/08/03 06:15:25;;;;;;;7.55;2.58;;;36.90;61.10;38.70;100675;;;;562198;250;24191;-87
2022/08/03 06:17:56;;;;;;;28.55;3.97;;;38.80;56.90;40.40;100677;;;;551003;260;23231;-85
2022/08/03 06:20:21;;;;;;;17.33;4.12;;;40.50;52.40;41.90;100675;;;;554949;254;23209;-86
2022/08/03 06:22:51;;;;;;;21.65;3.58;;;42.00;48.70;43.30;100682;;;;550814;260;23178;-86
2022/08/03 06:25:20;;;;;;;19.37;3.53;;;43.40;45.60;44.20;100682;;;;543250;260;23221;-86
2022/08/03 06:27:44;;;;;;;10.93;2.97;;;44.60;44.00;45.10;100680;;;;573627;250;23257;-87
2022/08/03 06:30:12;;;;;;;15.90;3.20;;;45.50;42.60;46.00;100679;;;;548480;260;23215;-87
2022/08/03 06:32:40;;;;;;;14.75;3.85;;;46.40;41.20;46.50;100683;;;;568560;248;23154;-87
2022/08/03 06:35:08;;;;;;;14.75;3.90;;;46.90;39.80;47.20;100686;;;;565208;251;23143;-87
2022/08/03 06:37:45;;;;;;;10.20;3.50;;;47.60;39.00;47.90;100682;;;;565194;251;23127;-87
2022/08/03 06:40:16;;;;;;;14.75;3.03;;;48.30;38.20;48.50;100693;;;;573971;250;23237;-85
2022/08/03 06:42:44;;;;;;;11.30;3.35;;;48.80;37.20;49.10;100691;;;;564881;250;23142;-86
2022/08/03 06:45:09;;;;;;;6.93;2.97;;;49.40;36.60;49.60;100688;;;;564683;251;24181;-85
2022/08/03 06:47:41;;;;;;;20.98;5.20;;;49.90;35.70;50.00;100696;;;;562295;251;23147;-87
2022/08/03 06:50:08;;;;;;;17.27;4.15;;;50.30;34.80;50.30;100695;;;;572411;247;23198;-86
2022/08/03 06:52:34;;;;;;;16.12;4.43;;;50.80;34.70;50.70;100693;;;;572211;250;23172;-88
2022/08/03 06:55:03;;;;;;;18.67;4.32;;;51.50;33.80;51.20;100693;;;;561702;251;23144;-86
2022/08/03 06:57:31;;;;;;;18.58;4.45;;;51.90;33.00;51.70;100700;;;;572821;250;23114;-84
2022/08/03 07:00:01;;;;;;;25.70;4.37;;;52.30;32.50;52.00;100697;;;;562011;251;23204;-85
2022/08/03 07:02:29;;;;;;;14.43;3.30;;;52.60;32.60;52.20;100700;;;;562546;251;23163;-89
2022/08/03 07:05:00;;;;;;;12.48;3.60;;;52.50;32.50;52.60;100700;;;;564802;251;23142;-88
2022/08/03 07:07:25;;;;;;;14.18;3.75;;;52.90;32.10;52.90;100706;;;;564745;251;23137;-87
2022/08/03 07:09:52;;;;;;;15.43;3.80;;;53.20;30.80;52.60;100703;;;;564280;250;23163;-87
2022/08/03 07:12:20;;;;;;;10.77;3.45;;;53.10;31.40;53.00;100698;;;;562634;251;23183;-88
2022/08/03 07:14:49;;;;;;;10.10;3.42;;;53.50;31.10;53.20;100701;;;;563714;251;23110;-88
2022/08/03 07:17:22;;;;;;;15.38;4.07;;;53.50;31.80;53.40;100696;;;;562747;251;23131;-88
2022/08/03 07:19:46;;;;;;;22.37;3.75;;;53.80;31.20;53.80;100694;;;;565027;249;23139;-87
2022/08/03 07:22:14;;;;;;;18.67;3.85;;;53.80;31.20;54.10;100695;;;;563818;250;23160;-89
2022/08/03 07:24:42;;;;;;;15.40;4.15;;;54.10;30.70;54.30;100694;;;;562988;250;23148;-86
2022/08/03 07:27:10;;;;;;;7.43;3.22;;;54.50;30.60;54.70;100699;;;;563344;250;23128;-85
2022/08/03 07:29:38;;;;;;;27.85;4.95;;;54.80;30.10;55.00;100700;;;;563327;251;24156;-87
2022/08/03 07:32:06;;;;;;;104.55;13.27;;;55.00;29.50;55.40;100700;;;;574325;250;23161;-88
2022/08/03 07:34:34;;;;;;;33.65;5.85;;;55.40;29.30;55.50;100699;;;;564587;251;24134;-88
2022/08/03 07:37:03;;;;;;;18.17;4.10;;;55.90;29.60;55.70;100699;;;;564524;251;23115;-84
2022/08/03 07:39:34;;;;;;;24.42;4.68;;;55.70;29.20;55.30;100705;;;;564873;250;24158;-87
2022/08/03 07:42:04;;;;;;;24.52;3.83;;;55.70;29.60;55.40;100699;;;;555568;254;23177;-88
2022/08/03 07:44:32;;;;;;;13.82;3.28;;;55.80;30.00;55.80;100694;;;;545877;259;23330;-88
2022/08/03 07:47:00;;;;;;;17.75;3.70;;;55.90;30.10;55.70;100692;;;;555748;255;26726;-87
2022/08/03 07:49:28;;;;;;;13.18;3.37;;;55.90;29.50;55.90;100699;;;;571193;251;23212;-86
2022/08/03 07:54:47;;;;;;;13.07;4.20;;;55.80;29.80;55.50;100706;;;;565601;250;23147;-88
2022/08/03 07:57:13;;;;;;;12.02;3.53;;;55.80;29.20;55.70;100700;;;;572348;250;23149;-88
2022/08/03 07:59:48;;;;;;;9.40;3.45;;;55.90;29.20;55.60;100703;;;;570433;251;23158;-88
2022/08/03 08:02:13;;;;;;;8.13;2.95;;;55.90;29.30;55.20;100705;;;;561973;250;24217;-85
2022/08/03 08:04:41;;;;;;;8.10;3.37;;;55.80;29.20;54.10;100707;;;;562140;251;23133;-84
2022/08/03 08:07:09;;;;;;;5.10;3.10;;;55.10;29.50;53.20;100714;;;;573835;250;24181;-83
2022/08/03 08:09:41;;;;;;;5.72;3.05;;;54.40;29.90;51.50;100716;;;;569968;250;23185;-84
2022/08/03 08:12:06;;;;;;;8.38;2.60;;;53.10;30.50;49.70;100715;;;;564392;250;23137;-86
2022/08/03 08:14:33;;;;;;;6.03;2.45;;;51.60;31.30;49.50;100717;;;;564764;251;23162;-86
2022/08/03 08:17:01;;;;;;;3.47;2.33;;;50.70;32.10;49.40;100715;;;;570165;251;24185;-85
2022/08/03 08:19:30;;;;;;;4.47;2.75;;;50.20;31.80;49.40;100717;;;;564277;250;23148;-87
2022/08/03 08:22:05;;;;;;;7.78;3.10;;;50.10;32.00;49.50;100715;;;;569095;250;23135;-85
2022/08/03 08:24:29;;;;;;;6.07;2.70;;;50.10;32.20;49.80;100714;;;;564399;250;23131;-84
2022/08/03 08:26:57;;;;;;;10.68;2.65;;;50.40;32.20;49.50;100720;;;;563866;251;24187;-85
2022/08/03 08:29:25;;;;;;;6.00;2.55;;;50.40;32.20;49.20;100717;;;;573817;250;23151;-85
2022/08/03 08:31:56;;;;;;;7.40;2.85;;;50.10;32.40;49.70;100714;;;;564279;250;23141;-85
2022/08/03 08:34:24;;;;;;;6.72;2.97;;;50.30;31.80;50.00;100722;;;;570523;250;23125;-84
2022/08/03 08:36:52;;;;;;;5.50;2.70;;;50.70;31.80;49.70;100717;;;;563865;250;23115;-84
2022/08/03 08:39:25;;;;;;;6.03;3.05;;;50.80;31.80;50.10;100720;;;;564719;251;23225;-83
2022/08/03 08:41:53;;;;;;;10.15;2.70;;;50.80;31.70;51.10;100721;;;;574224;250;23168;-85
2022/08/03 08:44:22;;;;;;;12.43;2.83;;;51.50;31.40;50.90;100717;;;;557070;251;35447;-84
2022/08/03 08:46:53;;;;;;;5.55;2.33;;;51.80;30.90;50.50;100724;;;;570970;251;23159;-87
2022/08/03 08:49:18;;;;;;;3.97;2.60;;;51.50;31.00;50.40;100712;;;;572903;250;23131;-88
2022/08/03 08:51:50;;;;;;;4.10;2.67;;;51.50;31.00;50.40;100713;;;;573478;247;23171;-88
2022/08/03 08:54:17;;;;;;;5.82;2.87;;;51.40;31.10;51.30;100713;;;;564742;250;23166;-85
2022/08/03 08:56:45;;;;;;;3.65;2.50;;;51.90;30.80;51.70;100714;;;;572919;250;23131;-89
2022/08/03 08:59:09;;;;;;;4.93;2.85;;;52.40;30.30;51.90;100704;;;;565279;250;23146;-86
2022/08/03 09:01:37;;;;;;;4.35;2.60;;;52.70;29.80;52.30;100706;;;;564938;251;23200;-85
2022/08/03 09:04:10;;;;;;;5.03;2.42;;;53.40;29.70;52.30;100715;;;;562327;251;23167;-85
2022/08/03 09:06:38;;;;;;;7.82;3.05;;;52.40;30.00;50.50;100714;;;;573053;248;23226;-84
2022/08/03 09:09:03;;;;;;;4.95;2.67;;;52.30;30.00;50.30;100707;;;;563926;251;23155;-85
2022/08/03 09:11:31;;;;;;;6.70;2.97;;;51.80;30.60;48.00;100714;;;;564574;250;23151;-86
2022/08/03 09:13:59;;;;;;;7.65;2.67;;;48.90;32.80;47.20;100718;;;;562499;251;23106;-85
2022/08/03 09:16:32;;;;;;;4.07;2.45;;;48.90;32.90;47.90;100709;;;;550499;260;24200;-85
2022/08/03 09:18:56;;;;;;;6.57;2.72;;;48.90;32.90;48.70;100714;;;;564921;250;24163;-82
2022/08/03 09:21:28;;;;;;;6.53;2.55;;;49.40;32.50;49.30;100715;;;;572836;251;23167;-84
2022/08/03 09:23:52;;;;;;;18.20;3.08;;;50.10;31.40;49.60;100709;;;;572804;250;23145;-86
2022/08/03 09:26:26;;;;;;;13.10;3.03;;;50.60;30.80;50.80;100708;;;;573802;250;23144;-85
2022/08/03 09:29:08;;;;;;;15.30;3.10;;;52.70;29.60;52.40;100700;;;;564338;251;23153;-89
2022/08/03 09:31:39;;;;;;;5.95;2.42;;;52.70;29.60;53.70;100691;;;;565181;250;23239;-87
2022/08/03 09:34:18;;;;;;;10.13;2.78;;;54.00;29.20;55.10;100691;;;;552845;259;23180;-86
2022/08/03 09:36:47;;;;;;;8.55;2.78;;;55.50;28.30;55.80;100696;;;;563660;251;23167;-83
2022/08/03 09:39:21;;;;;;;6.72;2.45;;;56.70;28.00;56.60;100692;;;;565721;250;23124;-82
2022/08/03 09:42:09;;;;;;;8.13;2.62;;;57.60;27.40;56.60;100692;;;;563849;252;23147;-85
2022/08/03 09:44:42;;;;;;;8.80;2.50;;;57.90;27.30;57.00;100696;;;;542939;259;23177;-83
2022/08/03 09:47:11;;;;;;;4.00;2.42;;;58.30;27.50;57.60;100690;;;;570438;246;23201;-85
2022/08/03 09:49:40;;;;;;;9.10;2.60;;;58.70;26.90;57.30;100697;;;;566624;250;23122;-86
2022/08/03 09:52:17;;;;;;;8.70;2.72;;;58.80;26.70;56.40;100697;;;;574258;250;23125;-88
2022/08/03 09:54:46;;;;;;;2.90;2.58;;;58.10;26.70;55.70;100693;;;;574904;250;23173;-89
2022/08/03 09:57:24;;;;;;;16.05;3.87;;;57.40;27.20;56.20;100695;;;;561057;246;23127;-85
2022/08/03 09:59:55;;;;;;;51.50;5.30;;;57.50;27.40;56.60;100688;;;;583565;246;23166;-84
2022/08/03 10:02:20;;;;;;;13.55;3.00;;;57.90;27.40;57.10;100697;;;;572811;246;23162;-85
2022/08/03 10:04:57;;;;;;;4.18;2.85;;;58.30;27.10;57.10;100696;;;;576051;243;23126;-85
2022/08/03 10:07:28;;;;;;;4.18;2.70;;;58.60;26.70;55.00;100700;;;;576998;246;23076;-90
2022/08/03 10:10:09;;;;;;;7.80;2.70;;;57.20;26.80;54.60;100705;;;;573651;245;23096;-86
2022/08/03 10:12:29;;;;;;;9.90;3.12;;;56.30;27.40;55.00;100704;;;;571572;247;23136;-84
2022/08/03 10:15:03;;;;;;;4.10;2.25;;;56.30;27.40;55.10;100700;;;;582925;242;23197;-88
2022/08/03 10:17:27;;;;;;;5.68;2.70;;;56.50;27.50;55.20;100696;;;;585453;242;23117;-87
2022/08/03 10:19:56;;;;;;;15.73;2.83;;;56.60;27.50;55.30;100688;;;;573690;247;23104;-85
2022/08/03 10:22:26;;;;;;;7.75;2.50;;;56.80;26.80;54.50;100691;;;;574346;247;23099;-86
2022/08/03 10:25:04;;;;;;;9.63;2.87;;;55.60;27.50;54.00;100696;;;;582546;246;23134;-85
2022/08/03 10:27:37;;;;;;;2.40;2.20;;;55.60;27.50;53.20;100695;;;;581114;247;23099;-86
2022/08/03 10:30:09;;;;;;;4.10;3.00;;;54.80;27.80;52.30;100700;;;;583546;246;23098;-87
2022/08/03 10:32:46;;;;;;;4.37;2.22;;;54.10;27.90;51.90;100690;;;;582775;244;23102;-88
2022/08/03 10:35:16;;;;;;;25.20;3.62;;;53.00;28.40;51.70;100693;;;;582952;247;24135;-85
2022/08/03 10:37:45;;;;;;;10.48;2.78;;;53.00;28.40;50.90;100695;;;;577695;247;23094;-88
2022/08/03 10:40:13;;;;;;;22.67;3.70;;;52.40;28.50;50.10;100701;;;;594720;242;23078;-88
2022/08/03 10:42:48;;;;;;;5.37;2.30;;;50.70;29.30;49.20;100705;;;;585445;242;23195;-87
2022/08/03 10:45:19;;;;;;;3.62;2.15;;;50.80;29.30;48.50;100702;;;;585183;242;23075;-85
2022/08/03 10:47:51;;;;;;;15.38;3.20;;;48.90;30.40;47.70;100699;;;;574255;247;23089;-86
2022/08/03 10:50:19;;;;;;;17.27;4.18;;;47.90;31.50;47.00;100692;;;;583890;245;23141;-85
2022/08/03 10:53:05;;;;;;;25.00;4.78;;;47.90;31.40;46.20;100683;;;;585192;242;23146;-86
2022/08/03 10:58:44;;;;;;;10.25;3.20;;;45.60;32.90;43.40;100695;;;;584333;245;23137;-87
2022/08/03 11:01:11;;;;;;;65.07;8.13;;;43.80;34.20;42.30;100689;;;;572888;246;23090;-88
2022/08/03 11:03:52;;;;;;;11.85;3.30;;;42.60;35.00;41.30;100689;;;;586345;242;23060;-87
2022/08/03 11:06:24;;;;;;;11.45;2.12;;;41.50;35.70;39.70;100690;;;;574310;246;23088;-85
2022/08/03 11:09:10;;;;;;;9.45;2.83;;;38.90;38.30;38.70;100689;;;;585405;242;23064;-87
2022/08/03 11:11:41;;;;;;;11.38;2.62;;;38.90;38.30;37.80;100690;;;;589856;241;23070;-85
2022/08/03 11:14:09;;;;;;;5.12;2.28;;;37.90;38.60;37.10;100688;;;;589515;242;24097;-87
2022/08/03 11:16:34;;;;;;;2.08;1.92;;;36.40;40.60;36.30;100680;;;;584389;242;23076;-87
2022/08/03 11:19:10;;;;;;;2.40;2.10;;;36.30;40.50;35.70;100669;;;;588629;241;24122;-85
2022/08/03 11:21:50;;;;;;;5.55;2.30;;;35.80;41.70;35.10;100668;;;;576619;246;23074;-84
2022/08/03 11:24:42;;;;;;;38.30;4.75;;;35.10;42.00;34.50;100669;;;;582334;247;23172;-84
2022/08/03 11:27:26;;;;;;;6.47;2.08;;;34.60;42.90;34.00;100665;;;;571953;247;24113;-84
2022/08/03 11:29:59;;;;;;;13.18;2.67;;;34.10;43.70;33.50;100667;;;;584654;242;23082;-84